Time;durP1;ratioP1;P1;durP2;ratioP2;P2;SDS_P1;SDS_P2;PMS_P1;PMS_P2;Temp;Humidity;BMP_temperature;BMP_pressure;BME280_temperature;BME280_humidity;BME280_pressure;Samples;Min_cycle;Max_cycle;Signal;HPM_P1;HPM_P2
2024/01/24 00:01:59;;;;;;;3.78;2.63;;;;;;;16.28;51.67;101277.44;5005372;28;20051;-44
2024/01/24 00:04:26;;;;;;;5.75;2.70;;;;;;;16.28;52.37;101263.19;5007407;28;20132;-44
2024/01/24 00:06:53;;;;;;;4.50;2.30;;;;;;;16.30;52.72;101253.22;5007983;28;20128;-44
2024/01/24 00:09:20;;;;;;;5.55;2.88;;;;;;;16.31;51.69;101256.72;5006340;28;20073;-44
2024/01/24 00:11:46;;;;;;;3.63;2.28;;;;;;;16.31;52.04;101257.56;5006983;28;20054;-45
2024/01/24 00:14:13;;;;;;;5.35;2.40;;;;;;;16.32;51.96;101266.44;5006531;28;20045;-43
2024/01/24 00:16:40;;;;;;;3.95;2.58;;;;;;;16.32;51.63;101258.41;5005029;28;20073;-43
2024/01/24 00:19:07;;;;;;;5.63;2.67;;;;;;;16.33;52.79;101273.50;5002745;28;20053;-43
2024/01/24 00:21:33;;;;;;;3.58;2.17;;;;;;;16.32;53.03;101287.84;5003794;28;20048;-44
2024/01/24 00:24:00;;;;;;;3.67;2.08;;;;;;;16.32;52.66;101294.03;5006181;28;20108;-43
2024/01/24 00:26:27;;;;;;;3.80;2.28;;;;;;;16.30;52.16;101285.31;5004148;28;20078;-43
2024/01/24 00:28:54;;;;;;;3.80;2.30;;;;;;;16.33;52.62;101305.59;5005022;28;20046;-43
2024/01/24 00:31:20;;;;;;;3.97;2.30;;;;;;;16.32;52.97;101280.66;5007372;28;20077;-44
2024/01/24 00:33:47;;;;;;;3.20;2.15;;;;;;;16.32;52.95;101302.06;5007162;28;20127;-43
2024/01/24 00:36:14;;;;;;;3.00;2.08;;;;;;;16.31;52.49;101297.69;5006107;28;20046;-43
2024/01/24 00:38:40;;;;;;;3.90;2.00;;;;;;;16.31;53.06;101297.69;5006956;28;20416;-44
2024/01/24 00:41:07;;;;;;;5.00;2.22;;;;;;;16.32;52.12;101293.19;5004296;28;20073;-43
2024/01/24 00:43:34;;;;;;;4.00;2.20;;;;;;;16.32;53.06;101306.56;5002945;28;20073;-44
2024/01/24 00:46:00;;;;;;;3.67;2.33;;;;;;;16.31;52.48;101299.53;5006178;28;20137;-43
2024/01/24 00:48:27;;;;;;;2.85;2.05;;;;;;;16.30;52.30;101306.72;5003505;28;20050;-43
2024/01/24 00:50:54;;;;;;;3.70;2.15;;;;;;;16.29;52.83;101308.53;4986792;28;20057;-43
2024/01/24 00:53:20;;;;;;;3.08;2.05;;;;;;;16.29;52.71;101305.88;5003143;28;20061;-44
2024/01/24 00:55:47;;;;;;;3.30;1.70;;;;;;;16.31;52.37;101311.06;5002792;28;20489;-43
2024/01/24 00:58:14;;;;;;;3.88;1.95;;;;;;;16.29;51.97;101321.91;5013892;28;20144;-43
2024/01/24 01:00:41;;;;;;;2.30;1.63;;;;;;;16.30;52.67;101309.38;5004784;28;20449;-43
2024/01/24 01:03:08;;;;;;;2.50;1.42;;;;;;;16.32;52.67;101303.91;5006167;28;20041;-44
2024/01/24 01:05:36;;;;;;;3.03;2.30;;;;;;;16.32;52.04;101303.91;5000220;28;20085;-43
2024/01/24 01:08:05;;;;;;;2.67;1.70;;;;;;;16.31;52.21;101276.28;5001815;28;20045;-43
2024/01/24 01:10:31;;;;;;;2.80;1.75;;;;;;;16.31;52.99;101292.34;5002410;28;20054;-44
2024/01/24 01:12:58;;;;;;;2.72;1.50;;;;;;;16.31;52.44;101289.69;5003535;28;20133;-43
2024/01/24 01:15:25;;;;;;;2.75;1.95;;;;;;;16.30;52.73;101261.25;5001102;28;20164;-44
2024/01/24 01:17:51;;;;;;;3.55;1.75;;;;;;;16.30;52.21;101271.94;5002655;28;20058;-43
2024/01/24 01:20:21;;;;;;;3.38;2.17;;;;;;;16.31;53.08;101280.81;5001632;28;20350;-43
2024/01/24 01:22:47;;;;;;;2.53;1.75;;;;;;;16.29;53.04;101271.09;5000537;28;20147;-43
2024/01/24 01:25:14;;;;;;;3.20;1.58;;;;;;;16.32;53.13;101287.84;5003719;28;20054;-43
2024/01/24 01:27:41;;;;;;;3.33;1.95;;;;;;;16.29;52.81;101252.38;5005919;28;20397;-43
2024/01/24 01:30:08;;;;;;;2.40;1.40;;;;;;;16.31;52.77;101262.94;5005362;28;20042;-43
2024/01/24 01:32:35;;;;;;;2.25;1.65;;;;;;;16.31;52.99;101265.59;5006009;28;20046;-42
2024/01/24 01:35:02;;;;;;;2.08;1.65;;;;;;;16.32;52.68;101255.75;5000294;28;20046;-43
2024/01/24 01:37:28;;;;;;;2.38;1.50;;;;;;;16.30;52.41;101261.25;5002049;28;20060;-42
2024/01/24 01:39:55;;;;;;;2.50;1.40;;;;;;;16.32;53.16;101282.50;5000096;28;20057;-43
2024/01/24 01:42:22;;;;;;;2.28;1.50;;;;;;;16.31;53.55;101254.91;5005916;28;20053;-43
2024/01/24 01:44:49;;;;;;;1.80;1.30;;;;;;;16.33;52.26;101262.81;5003473;28;20049;-43
2024/01/24 01:47:16;;;;;;;3.10;1.50;;;;;;;16.32;52.83;101263.78;5001678;28;20050;-43
2024/01/24 01:49:44;;;;;;;2.10;1.17;;;;;;;16.33;53.41;101249.44;5004506;28;20082;-44
2024/01/24 01:52:12;;;;;;;1.98;1.17;;;;;;;16.33;52.66;101239.59;5002017;28;20077;-43
2024/01/24 01:54:41;;;;;;;2.42;1.48;;;;;;;16.33;53.24;101252.97;5004279;28;20132;-43
2024/01/24 01:57:11;;;;;;;2.25;1.50;;;;;;;16.34;52.87;101248.44;5007277;28;20058;-44
2024/01/24 01:59:40;;;;;;;2.10;1.38;;;;;;;16.35;52.99;101255.50;5002399;28;20050;-44
2024/01/24 02:02:07;;;;;;;2.45;1.58;;;;;;;16.35;53.07;101252.81;5002444;28;20544;-43
2024/01/24 02:04:34;;;;;;;3.35;1.20;;;;;;;16.35;52.50;101260.84;5006356;28;20108;-43
2024/01/24 02:07:01;;;;;;;1.90;1.40;;;;;;;16.35;53.50;101261.69;5005023;28;20470;-43
2024/01/24 02:09:28;;;;;;;2.90;1.50;;;;;;;16.36;53.15;101246.47;5003723;28;20398;-43
2024/01/24 02:11:55;;;;;;;1.50;1.20;;;;;;;16.36;52.82;101259.84;5004309;28;20049;-44
2024/01/24 02:14:21;;;;;;;2.55;1.30;;;;;;;16.37;53.59;101259.75;5002886;28;20099;-43
2024/01/24 02:16:48;;;;;;;2.50;1.10;;;;;;;16.38;53.08;101261.41;5005389;28;20053;-43
2024/01/24 02:19:16;;;;;;;2.75;1.20;;;;;;;16.38;52.59;101255.22;5002064;28;20112;-43
2024/01/24 02:21:42;;;;;;;2.92;1.20;;;;;;;16.37;52.92;101261.56;5006891;28;20054;-43
2024/01/24 02:24:11;;;;;;;3.10;1.20;;;;;;;16.38;52.38;101269.44;5005566;28;20057;-43
2024/01/24 02:26:38;;;;;;;2.00;1.02;;;;;;;16.38;53.22;101261.41;5006905;28;20057;-43
2024/01/24 02:29:06;;;;;;;2.35;1.10;;;;;;;16.40;53.11;101282.69;5004835;28;20039;-44
2024/01/24 02:31:32;;;;;;;1.52;0.95;;;;;;;16.39;53.04;101292.53;5003733;28;20073;-43
2024/01/24 02:33:59;;;;;;;1.17;1.00;;;;;;;16.39;53.31;101289.03;5005521;28;20267;-43
2024/01/24 02:36:26;;;;;;;1.67;1.00;;;;;;;16.39;52.65;101286.34;5004350;28;20050;-42
2024/01/24 02:38:53;;;;;;;2.42;1.25;;;;;;;16.40;53.71;101285.34;5001870;28;20061;-44
2024/01/24 02:41:24;;;;;;;1.73;1.30;;;;;;;16.40;53.27;101293.38;5004664;28;20442;-43
2024/01/24 02:43:50;;;;;;;3.05;1.50;;;;;;;16.39;52.99;101268.47;5000033;28;20073;-43
2024/01/24 02:46:17;;;;;;;2.47;1.23;;;;;;;16.40;53.61;101285.34;5005108;28;20056;-43
2024/01/24 02:48:43;;;;;;;3.15;1.23;;;;;;;16.39;53.60;101308.59;5000880;28;20058;-43
2024/01/24 02:51:10;;;;;;;2.13;0.98;;;;;;;16.40;53.02;101296.06;5005447;28;20046;-44
2024/01/24 02:53:38;;;;;;;4.13;1.10;;;;;;;16.40;52.85;101296.06;4999829;28;20050;-44
2024/01/24 02:56:05;;;;;;;4.47;1.02;;;;;;;16.40;52.99;101293.38;5002129;28;20471;-44
2024/01/24 02:58:31;;;;;;;3.85;1.02;;;;;;;16.41;53.59;101298.63;5000823;28;20054;-43
2024/01/24 03:00:58;;;;;;;3.45;1.27;;;;;;;16.41;53.05;101300.44;5000767;28;20100;-43
2024/01/24 03:03:25;;;;;;;1.75;0.90;;;;;;;16.41;53.08;101328.06;5004540;28;20234;-43
2024/01/24 03:05:51;;;;;;;2.28;1.10;;;;;;;16.42;52.95;101339.59;5003644;28;20416;-43
2024/01/24 03:08:18;;;;;;;4.18;1.40;;;;;;;16.42;53.43;101347.63;5001221;28;20053;-44
2024/01/24 03:10:45;;;;;;;1.83;1.10;;;;;;;16.43;53.11;101349.31;5004244;28;20125;-43
2024/01/24 03:13:11;;;;;;;2.92;0.90;;;;;;;16.42;53.52;101344.94;5003458;28;20113;-45
2024/01/24 03:15:38;;;;;;;2.78;1.08;;;;;;;16.43;53.59;101343.97;5004741;28;20066;-43
2024/01/24 03:18:05;;;;;;;3.30;1.10;;;;;;;16.43;53.27;101357.34;5004591;28;20434;-43
2024/01/24 03:20:32;;;;;;;5.03;1.30;;;;;;;16.43;52.81;101354.66;5007754;28;20389;-44
2024/01/24 03:22:58;;;;;;;3.92;1.40;;;;;;;16.43;52.99;101350.16;5006755;28;20140;-44
2024/01/24 03:25:28;;;;;;;4.43;1.27;;;;;;;16.42;53.02;101343.13;5004226;28;20054;-43
2024/01/24 03:27:55;;;;;;;4.28;1.20;;;;;;;16.42;53.40;101364.53;5008871;28;20050;-43
2024/01/24 03:30:21;;;;;;;2.72;1.35;;;;;;;16.42;53.62;101352.97;5007436;28;20492;-42
2024/01/24 03:32:48;;;;;;;3.05;1.35;;;;;;;16.42;53.80;101336.91;5006241;28;20085;-43
2024/01/24 03:35:15;;;;;;;3.85;1.08;;;;;;;16.41;53.67;101333.41;5004684;28;20057;-44
2024/01/24 03:37:41;;;;;;;3.30;0.98;;;;;;;16.41;54.03;101356.63;5007155;28;20050;-43
2024/01/24 03:40:08;;;;;;;3.17;1.23;;;;;;;16.40;53.77;101345.09;5004480;28;20042;-43
2024/01/24 03:42:35;;;;;;;5.10;1.35;;;;;;;16.40;53.70;101361.13;5004899;28;20393;-44
2024/01/24 03:45:02;;;;;;;5.10;1.58;;;;;;;16.40;53.87;101361.13;5006193;28;20042;-44
2024/01/24 03:47:29;;;;;;;5.47;1.60;;;;;;;16.40;53.86;101357.59;5006357;28;20438;-44
2024/01/24 03:49:56;;;;;;;4.28;1.80;;;;;;;16.40;54.31;101354.91;5004904;28;20049;-43
2024/01/24 03:52:22;;;;;;;3.97;1.50;;;;;;;16.39;53.09;101331.81;5006650;28;20513;-43
2024/01/24 03:54:49;;;;;;;5.32;1.33;;;;;;;16.38;53.42;101362.25;5006039;28;20060;-44
2024/01/24 03:57:16;;;;;;;4.35;1.42;;;;;;;16.38;53.52;101351.53;5002908;28;20046;-43
2024/01/24 03:59:42;;;;;;;4.13;1.30;;;;;;;16.38;53.58;101351.53;5004603;28;20045;-43
2024/01/24 04:02:09;;;;;;;6.63;1.63;;;;;;;16.37;54.14;101350.69;5003529;28;20521;-43
2024/01/24 04:04:37;;;;;;;3.13;1.05;;;;;;;16.36;53.40;101351.69;5004401;28;20077;-43
2024/01/24 04:07:04;;;;;;;4.90;1.35;;;;;;;16.35;54.25;101346.44;5008608;28;20393;-43
2024/01/24 04:09:31;;;;;;;4.85;1.77;;;;;;;16.34;53.61;101345.59;5006399;28;20077;-43
2024/01/24 04:11:57;;;;;;;5.15;1.92;;;;;;;16.34;53.96;101368.81;5006433;28;20413;-43
2024/01/24 04:14:24;;;;;;;3.25;1.38;;;;;;;16.34;53.55;101358.13;5000789;28;20050;-43
2024/01/24 04:16:50;;;;;;;3.72;1.23;;;;;;;16.33;53.17;101343.91;5008283;28;20165;-43
2024/01/24 04:19:17;;;;;;;6.78;2.08;;;;;;;16.32;53.68;101333.31;5005147;28;20141;-43
2024/01/24 04:21:44;;;;;;;6.00;1.75;;;;;;;16.32;53.89;101346.69;5007293;28;20058;-43
2024/01/24 04:24:10;;;;;;;3.55;1.33;;;;;;;16.33;53.93;101359.13;5005198;28;20054;-43
2024/01/24 04:26:38;;;;;;;5.25;1.35;;;;;;;16.32;53.83;101338.66;5007661;28;20054;-42
2024/01/24 04:29:05;;;;;;;5.78;1.35;;;;;;;16.31;53.56;101348.53;5006586;28;20046;-43
2024/01/24 04:31:33;;;;;;;6.22;2.92;;;;;;;16.29;54.08;101339.78;5006173;28;20050;-43
2024/01/24 04:34:00;;;;;;;6.25;1.88;;;;;;;16.29;53.72;101351.34;5007642;28;20156;-44
2024/01/24 04:36:27;;;;;;;7.65;2.45;;;;;;;16.29;53.74;101378.09;5008621;28;20065;-44
2024/01/24 04:38:53;;;;;;;7.35;1.95;;;;;;;16.28;54.17;101392.44;5005156;28;20053;-43
2024/01/24 04:41:20;;;;;;;7.30;2.03;;;;;;;16.28;54.28;101379.06;5008624;28;20054;-43
2024/01/24 04:43:47;;;;;;;4.57;1.52;;;;;;;16.27;53.39;101363.97;5003244;28;20438;-43
2024/01/24 04:46:14;;;;;;;9.65;2.50;;;;;;;16.28;54.47;101370.16;5004248;28;20445;-43
2024/01/24 04:48:43;;;;;;;8.85;2.67;;;;;;;16.28;53.81;101375.53;5004999;28;20049;-43
2024/01/24 04:51:11;;;;;;;7.45;2.20;;;;;;;16.26;53.50;101381.00;5004964;28;20353;-43
2024/01/24 04:53:38;;;;;;;7.25;2.20;;;;;;;16.27;54.03;101357.78;5006384;28;20089;-43
2024/01/24 04:56:04;;;;;;;8.15;2.33;;;;;;;16.27;54.47;101395.22;5006516;28;20089;-43
2024/01/24 04:58:31;;;;;;;7.93;2.40;;;;;;;16.28;54.23;101396.91;5006755;28;20054;-43
2024/01/24 05:00:58;;;;;;;9.52;2.53;;;;;;;16.28;53.96;101388.91;5002126;28;20053;-43
2024/01/24 05:03:24;;;;;;;7.13;1.92;;;;;;;16.28;53.98;101415.66;5002525;28;20697;-43
2024/01/24 05:05:52;;;;;;;8.02;2.30;;;;;;;16.28;53.40;101404.94;5003245;28;20053;-42
2024/01/24 05:08:30;;;;;;;10.48;3.13;;;;;;;16.29;53.63;101428.06;5003978;28;20046;-43
2024/01/24 05:10:56;;;;;;;9.65;2.90;;;;;;;16.32;54.10;101416.25;5007782;28;20050;-43
2024/01/24 05:13:23;;;;;;;9.60;2.97;;;;;;;16.34;54.01;101455.28;5006906;28;20054;-43
2024/01/24 05:15:50;;;;;;;10.65;3.05;;;;;;;16.38;53.56;101442.50;5002549;28;20113;-43
2024/01/24 05:18:17;;;;;;;9.63;3.83;;;;;;;16.41;54.04;101443.09;5005150;28;20057;-43
2024/01/24 05:20:44;;;;;;;11.07;4.90;;;;;;;16.46;53.88;101448.06;5002222;28;20342;-43
2024/01/24 05:23:10;;;;;;;15.20;6.43;;;;;;;16.50;53.33;101473.56;5005225;28;20065;-44
2024/01/24 05:25:37;;;;;;;19.02;8.40;;;;;;;16.57;53.42;101449.84;5002929;28;20064;-44
2024/01/24 05:28:04;;;;;;;20.35;9.75;;;;;;;16.63;53.18;101457.34;4999645;28;20093;-43
2024/01/24 05:30:30;;;;;;;20.33;11.00;;;;;;;16.70;53.66;101470.06;5005433;28;20053;-44
2024/01/24 05:33:02;;;;;;;25.48;12.50;;;;;;;16.76;52.69;101468.72;5001877;28;20049;-43
2024/01/24 05:35:29;;;;;;;27.55;12.60;;;;;;;16.82;52.41;101472.72;4999461;28;20477;-43
2024/01/24 05:37:56;;;;;;;27.20;13.98;;;;;;;16.87;52.82;101502.63;5005330;28;20085;-39
2024/01/24 05:40:22;;;;;;;28.55;15.50;;;;;;;16.89;52.98;101488.13;5001112;28;20050;-42
2024/01/24 05:42:49;;;;;;;30.63;16.15;;;;;;;16.93;52.47;101488.72;5004146;28;20054;-38
2024/01/24 05:45:19;;;;;;;33.42;16.10;;;;;;;16.95;52.50;101503.66;5001551;28;20345;-44
2024/01/24 05:47:45;;;;;;;33.97;18.52;;;;;;;16.97;52.68;101508.91;5001350;28;20141;-40
2024/01/24 05:50:13;;;;;;;32.58;17.30;;;;;;;16.97;52.03;101499.06;5001042;28;20050;-44
2024/01/24 05:52:41;;;;;;;30.80;16.65;;;;;;;16.98;51.84;101491.84;4998877;28;20101;-44
2024/01/24 05:55:11;;;;;;;33.97;17.58;;;;;;;16.97;52.38;101515.13;5002515;28;20123;-44
2024/01/24 05:57:39;;;;;;;29.48;16.52;;;;;;;16.96;51.67;101521.44;4999167;28;20093;-45
2024/01/24 06:00:09;;;;;;;35.58;18.42;;;;;;;16.95;52.12;101524.25;4999948;28;20050;-42
2024/01/24 06:02:36;;;;;;;34.20;19.10;;;;;;;16.93;52.04;101521.72;5003007;28;20073;-44
2024/01/24 06:05:03;;;;;;;33.75;18.75;;;;;;;16.92;51.97;101554.78;5001394;28;20045;-44
2024/01/24 06:07:31;;;;;;;39.42;20.05;;;;;;;16.90;52.16;101546.06;4997836;28;20054;-44
2024/01/24 06:09:57;;;;;;;35.75;18.23;;;;;;;16.89;52.37;101538.16;5001733;28;20085;-44
2024/01/24 06:12:24;;;;;;;35.65;18.92;;;;;;;16.87;52.10;101545.47;5004838;28;20132;-44
2024/01/24 06:14:52;;;;;;;36.33;19.58;;;;;;;16.86;52.30;101554.47;5002301;28;20134;-43
2024/01/24 06:17:18;;;;;;;38.67;19.35;;;;;;;16.85;52.44;101582.25;5005389;28;20104;-44
2024/01/24 06:19:45;;;;;;;34.75;18.13;;;;;;;16.82;51.99;101587.84;5001395;28;20045;-44
2024/01/24 06:22:12;;;;;;;35.65;18.33;;;;;;;16.81;51.95;101575.44;5007323;28;20050;-43
2024/01/24 06:24:38;;;;;;;39.70;18.90;;;;;;;16.86;52.21;101579.44;5004318;28;20057;-44
2024/01/24 06:27:05;;;;;;;34.22;18.20;;;;;;;16.92;51.52;101586.94;5006815;28;20457;-44
2024/01/24 06:29:32;;;;;;;32.88;17.63;;;;;;;16.98;52.14;101581.06;5020772;28;20053;-45
2024/01/24 06:32:18;;;;;;;35.92;17.85;;;;;;;17.03;51.84;101584.22;5008260;28;20046;-40
2024/01/24 06:34:45;;;;;;;36.20;17.83;;;;;;;17.08;51.79;101593.69;4995142;28;20054;-42
2024/01/24 06:37:11;;;;;;;33.83;16.80;;;;;;;17.11;51.73;101609.50;5004545;28;20475;-41
2024/01/24 06:39:38;;;;;;;35.78;17.23;;;;;;;17.13;51.63;101620.97;5007163;28;20082;-40
2024/01/24 06:42:05;;;;;;;31.13;15.68;;;;;;;17.14;51.35;101626.19;5003661;28;20073;-39
2024/01/24 06:44:32;;;;;;;31.38;15.30;;;;;;;17.17;51.63;101633.13;5004442;28;20072;-40
2024/01/24 06:46:58;;;;;;;36.35;15.80;;;;;;;17.18;51.21;101641.00;5005912;28;20456;-41
2024/01/24 06:49:25;;;;;;;34.80;15.57;;;;;;;17.17;50.83;101639.31;5005636;28;20060;-41
2024/01/24 06:51:51;;;;;;;30.10;14.95;;;;;;;17.17;51.28;101631.28;5009629;28;20125;-40
2024/01/24 06:54:18;;;;;;;32.78;15.50;;;;;;;17.17;51.25;101643.84;5021439;28;20061;-41
2024/01/24 06:56:45;;;;;;;26.77;14.98;;;;;;;17.16;51.29;101647.47;5009542;28;20468;-42
2024/01/24 06:59:11;;;;;;;31.33;14.85;;;;;;;17.14;51.39;101647.59;5011351;28;20093;-43
2024/01/24 07:01:38;;;;;;;28.92;15.30;;;;;;;17.12;51.33;101644.19;5006745;28;20042;-44
2024/01/24 07:04:05;;;;;;;34.78;15.35;;;;;;;17.11;50.78;101649.69;5003883;28;20181;-44
2024/01/24 07:06:32;;;;;;;32.05;14.35;;;;;;;17.07;51.64;101649.09;5006623;28;20050;-44
2024/01/24 07:08:59;;;;;;;30.25;14.32;;;;;;;17.04;51.23;101654.69;4999716;28;20057;-44
2024/01/24 07:11:25;;;;;;;27.17;13.60;;;;;;;17.02;51.38;101645.94;4999037;28;20053;-44
2024/01/24 07:13:53;;;;;;;25.48;13.13;;;;;;;16.98;51.25;101666.78;4999007;28;20054;-44
2024/01/24 07:16:19;;;;;;;34.45;14.25;;;;;;;16.96;51.22;101684.78;5000343;28;20405;-44
2024/01/24 07:18:46;;;;;;;24.58;12.18;;;;;;;16.94;51.34;101664.47;5002657;28;20054;-44
2024/01/24 07:21:14;;;;;;;29.30;13.55;;;;;;;16.94;51.68;101664.47;5004440;28;20231;-44
2024/01/24 07:23:40;;;;;;;26.70;12.55;;;;;;;16.91;51.76;101673.59;5006760;28;20074;-44
2024/01/24 07:26:07;;;;;;;25.13;12.25;;;;;;;16.91;51.56;101676.28;5007183;28;20046;-44
2024/01/24 07:28:35;;;;;;;29.17;12.02;;;;;;;16.90;51.25;101687.13;5005286;28;20107;-44
2024/01/24 07:31:02;;;;;;;29.55;12.18;;;;;;;16.90;51.46;101700.53;5003576;28;20128;-44
2024/01/24 07:33:29;;;;;;;30.45;12.55;;;;;;;16.89;51.39;101693.47;4997811;28;20050;-44
2024/01/24 07:35:56;;;;;;;30.85;12.30;;;;;;;16.88;51.61;101684.56;5001894;28;20078;-44
2024/01/24 07:38:22;;;;;;;32.13;11.55;;;;;;;16.87;51.69;101685.53;5002143;28;20088;-44
2024/01/24 07:40:49;;;;;;;31.45;11.73;;;;;;;16.87;51.00;101706.97;4999746;28;20042;-43
2024/01/24 07:43:16;;;;;;;23.50;9.82;;;;;;;16.85;51.43;101713.44;5002336;28;20059;-44
2024/01/24 07:45:42;;;;;;;25.83;10.73;;;;;;;16.83;51.15;101745.69;5002658;28;20057;-44
2024/01/24 07:48:13;;;;;;;26.88;10.63;;;;;;;16.82;51.43;101756.53;5000748;28;20054;-43
2024/01/24 07:50:42;;;;;;;27.73;10.93;;;;;;;16.81;51.83;101750.31;5005157;28;20078;-45
2024/01/24 07:53:09;;;;;;;27.55;10.57;;;;;;;16.81;51.17;101746.78;4998670;28;20089;-43
2024/01/24 07:55:36;;;;;;;29.73;10.75;;;;;;;16.80;51.37;101737.03;5002759;28;20064;-43
2024/01/24 07:58:21;;;;;;;27.38;11.13;;;;;;;16.78;51.51;101746.06;4999450;28;20061;-43
2024/01/24 08:00:48;;;;;;;26.58;9.70;;;;;;;16.76;51.51;101733.75;5000619;28;20062;-44
2024/01/24 08:03:16;;;;;;;26.10;10.25;;;;;;;16.72;51.45;101738.50;4999417;28;20049;-44
2024/01/24 08:05:43;;;;;;;29.27;10.30;;;;;;;16.69;51.33;101738.72;5005990;28;20054;-44
2024/01/24 08:08:10;;;;;;;29.23;10.05;;;;;;;16.68;51.66;101733.47;4997799;28;20050;-43
2024/01/24 08:10:37;;;;;;;25.75;9.75;;;;;;;16.68;51.29;101744.19;5005634;28;20085;-44
2024/01/24 08:13:04;;;;;;;27.20;8.98;;;;;;;16.66;51.63;101763.06;5001666;28;20077;-43
2024/01/24 08:15:31;;;;;;;25.05;10.23;;;;;;;16.63;51.59;101779.34;5017102;28;20050;-43
2024/01/24 08:17:58;;;;;;;22.73;9.27;;;;;;;16.62;51.97;101792.88;5003352;28;20046;-44
2024/01/24 08:20:25;;;;;;;24.23;9.45;;;;;;;16.60;51.91;101792.13;5000820;28;20050;-44
2024/01/24 08:22:52;;;;;;;26.50;9.23;;;;;;;16.58;51.81;101794.94;4998391;28;20050;-43
2024/01/24 08:25:19;;;;;;;26.60;10.18;;;;;;;16.58;51.98;101788.75;5005968;28;20061;-43
2024/01/24 08:27:45;;;;;;;21.90;8.43;;;;;;;16.56;51.66;101796.88;4999229;28;20054;-43
2024/01/24 08:30:12;;;;;;;24.55;9.27;;;;;;;16.56;51.89;101812.06;4999888;28;20433;-42
2024/01/24 08:32:41;;;;;;;27.42;9.80;;;;;;;16.56;52.07;101802.22;5000820;28;20387;-43
2024/01/24 08:35:08;;;;;;;19.13;8.25;;;;;;;16.57;51.41;101795.06;4999251;28;20129;-43
2024/01/24 08:37:35;;;;;;;25.08;7.97;;;;;;;16.56;51.29;101815.59;5001541;28;20050;-42
2024/01/24 08:40:02;;;;;;;22.60;7.82;;;;;;;16.56;51.54;101818.28;5015829;28;20050;-43
2024/01/24 08:42:29;;;;;;;22.20;8.35;;;;;;;16.58;51.65;101824.38;4997024;28;20051;-43
2024/01/24 08:44:56;;;;;;;28.38;8.48;;;;;;;16.57;51.72;101822.69;4994105;28;20137;-43
2024/01/24 08:47:23;;;;;;;23.67;8.10;;;;;;;16.57;51.21;101806.63;5000268;28;20501;-43
2024/01/24 08:49:50;;;;;;;23.80;8.23;;;;;;;16.57;51.41;101797.75;4998574;28;20121;-43
2024/01/24 08:52:17;;;;;;;22.55;7.72;;;;;;;16.57;51.69;101828.03;5004841;28;20135;-43
2024/01/24 08:54:44;;;;;;;20.73;7.57;;;;;;;16.58;51.80;101807.47;4996276;28;20134;-43
2024/01/24 08:57:11;;;;;;;20.85;7.80;;;;;;;16.61;51.97;101836.69;5004353;28;20466;-44
2024/01/24 08:59:38;;;;;;;23.80;8.07;;;;;;;16.63;51.43;101858.81;5001377;28;20086;-43
2024/01/24 09:02:07;;;;;;;20.40;6.95;;;;;;;16.68;51.66;101862.84;5005025;28;20057;-43
2024/01/24 09:04:36;;;;;;;22.17;7.03;;;;;;;16.73;51.50;101859.84;5002857;28;20737;-38
2024/01/24 09:07:03;;;;;;;22.50;7.32;;;;;;;16.77;50.94;101856.78;5005398;28;20093;-39
2024/01/24 09:09:32;;;;;;;20.60;7.20;;;;;;;16.82;50.58;101848.41;5000090;28;20501;-40
2024/01/24 09:11:59;;;;;;;20.65;6.97;;;;;;;16.86;51.20;101870.44;5000305;28;20053;-38
2024/01/24 09:14:26;;;;;;;24.10;7.22;;;;;;;16.89;50.67;101863.00;5004695;28;20053;-39
2024/01/24 09:16:53;;;;;;;19.45;7.38;;;;;;;16.92;51.06;101872.59;5003436;28;20054;-38
2024/01/24 09:19:21;;;;;;;25.23;7.07;;;;;;;16.95;50.72;101881.25;4995368;28;20058;-38
2024/01/24 09:21:49;;;;;;;25.80;7.18;;;;;;;16.98;50.92;101897.09;4998277;28;20426;-37
2024/01/24 09:24:16;;;;;;;22.00;7.10;;;;;;;17.00;50.60;101921.94;4999350;28;20054;-42
2024/01/24 09:26:42;;;;;;;24.48;7.18;;;;;;;17.03;50.18;101939.56;5005548;28;20046;-41
2024/01/24 09:29:12;;;;;;;20.05;6.55;;;;;;;17.06;50.00;101941.19;5003884;28;20050;-41
2024/01/24 09:31:45;;;;;;;20.77;6.72;;;;;;;17.08;50.29;101942.75;4999335;28;20054;-41
2024/01/24 09:34:12;;;;;;;20.52;7.07;;;;;;;17.10;50.52;101927.41;5000715;28;20065;-42
2024/01/24 09:36:39;;;;;;;23.30;7.32;;;;;;;17.13;49.95;101937.91;4999613;28;20081;-38
2024/01/24 09:39:09;;;;;;;17.75;6.40;;;;;;;17.15;49.94;101913.66;4996509;28;20045;-39
2024/01/24 09:41:41;;;;;;;21.05;7.45;;;;;;;17.17;50.01;101931.31;5001730;28;20201;-37
2024/01/24 09:44:09;;;;;;;22.60;6.45;;;;;;;17.20;50.01;101928.38;5000015;28;20074;-42
2024/01/24 09:46:40;;;;;;;27.05;7.78;;;;;;;17.24;50.14;101940.56;5002025;28;20045;-39
2024/01/24 09:49:07;;;;;;;21.08;6.50;;;;;;;17.27;50.26;101939.47;4998612;28;20050;-38
2024/01/24 09:51:36;;;;;;;23.33;7.82;;;;;;;17.31;49.86;101958.84;4997973;28;20109;-42
2024/01/24 09:54:05;;;;;;;24.67;6.88;;;;;;;17.33;49.83;101957.75;5003974;28;20108;-41
2024/01/24 09:56:37;;;;;;;24.70;7.43;;;;;;;17.37;50.24;101969.09;5000175;28;20086;-40
2024/01/24 09:59:05;;;;;;;19.92;6.13;;;;;;;17.39;49.81;101961.75;4999502;28;20501;-38
2024/01/24 10:01:35;;;;;;;21.75;7.35;;;;;;;17.43;49.75;101981.97;5002263;28;20042;-38
2024/01/24 10:04:02;;;;;;;23.40;6.65;;;;;;;17.46;49.51;101977.22;4997258;28;20141;-41
2024/01/24 10:06:29;;;;;;;25.92;7.10;;;;;;;17.49;50.16;101984.19;4998611;28;20046;-41
2024/01/24 10:08:57;;;;;;;20.58;6.43;;;;;;;17.52;50.27;101975.88;4998695;28;20054;-41
2024/01/24 10:11:24;;;;;;;20.83;6.45;;;;;;;17.56;49.95;101982.69;4997743;28;20097;-42
2024/01/24 10:13:56;;;;;;;20.58;6.45;;;;;;;17.59;49.80;102006.59;5003286;28;20129;-42
2024/01/24 10:16:23;;;;;;;23.10;7.15;;;;;;;17.63;50.06;102028.66;5006821;28;20138;-40
2024/01/24 10:18:50;;;;;;;25.77;6.70;;;;;;;17.65;49.79;102035.59;4999223;28;20129;-38
2024/01/24 10:21:17;;;;;;;21.13;6.60;;;;;;;17.67;49.39;102019.38;5003329;28;20481;-41
2024/01/24 10:23:44;;;;;;;24.33;7.13;;;;;;;17.68;49.54;102024.63;4998800;28;20057;-42
2024/01/24 10:26:10;;;;;;;19.98;6.80;;;;;;;17.70;49.40;102028.03;5000562;28;20056;-42
2024/01/24 10:28:37;;;;;;;20.25;6.60;;;;;;;17.73;49.55;102056.44;4997323;28;20050;-40
2024/01/24 10:31:04;;;;;;;25.50;7.22;;;;;;;17.74;49.16;102040.25;5000378;28;20141;-42
2024/01/24 10:33:31;;;;;;;21.73;6.32;;;;;;;17.75;49.40;102036.59;4998873;28;20133;-42
2024/01/24 10:35:58;;;;;;;20.58;7.43;;;;;;;17.77;49.00;102041.84;4996887;28;20052;-43
2024/01/24 10:38:38;;;;;;;18.95;6.35;;;;;;;17.78;48.84;102038.19;5000125;28;20086;-41
2024/01/24 10:41:11;;;;;;;17.45;5.75;;;;;;;17.79;48.94;102055.97;4994902;28;20046;-41
2024/01/24 10:43:46;;;;;;;22.45;6.68;;;;;;;17.80;49.06;102054.16;4998230;28;20045;-42
2024/01/24 10:46:15;;;;;;;18.17;5.72;;;;;;;17.82;48.83;102079.88;4999122;28;20119;-42
2024/01/24 10:48:42;;;;;;;15.10;5.40;;;;;;;17.83;48.91;102080.72;4996597;28;20047;-41
2024/01/24 10:51:10;;;;;;;21.73;5.95;;;;;;;17.84;49.02;102080.59;4999067;28;20505;-40
2024/01/24 10:53:37;;;;;;;15.80;5.68;;;;;;;17.85;48.72;102095.72;4999031;28;20137;-41
2024/01/24 10:56:05;;;;;;;18.40;6.00;;;;;;;17.85;48.94;102068.91;5000864;28;20092;-40
2024/01/24 10:58:34;;;;;;;19.50;6.03;;;;;;;17.86;48.68;102091.22;4998894;28;20053;-42
2024/01/24 11:01:01;;;;;;;19.77;6.22;;;;;;;17.87;48.87;102077.69;4993963;28;20358;-42
2024/01/24 11:03:28;;;;;;;17.80;5.80;;;;;;;17.88;49.04;102097.28;5000239;28;20090;-41
2024/01/24 11:05:58;;;;;;;23.38;6.53;;;;;;;17.90;48.74;102100.72;4995047;28;20050;-42
2024/01/24 11:08:37;;;;;;;18.13;5.75;;;;;;;17.90;49.02;102076.59;5002199;28;20078;-41
2024/01/24 11:11:16;;;;;;;18.85;5.80;;;;;;;17.92;48.60;102071.94;4997107;28;20057;-42
2024/01/24 11:13:43;;;;;;;16.73;5.07;;;;;;;17.92;48.73;102096.94;5004427;28;20073;-42
2024/01/24 11:16:25;;;;;;;20.48;5.88;;;;;;;17.90;48.49;102101.56;4995740;28;20054;-42
2024/01/24 11:18:52;;;;;;;15.65;5.35;;;;;;;17.93;48.97;102114.75;4999840;28;20050;-41
2024/01/24 11:21:21;;;;;;;18.02;5.78;;;;;;;17.93;48.62;102132.66;5000475;28;20084;-42